sensor_id;sensor_type;location;lat;lon;timestamp;P1;durP1;ratioP1;P2;durP2;ratioP2
12776;SDS011;6452;41.572;23.732;2022-10-29T10:02:41;12.00;;;5.20;;
12776;SDS011;6452;41.572;23.732;2022-10-29T10:07:40;4.10;;;3.00;;
12776;SDS011;6452;41.572;23.732;2022-10-29T10:10:21;3.40;;;3.10;;
12776;SDS011;6452;41.572;23.732;2022-10-29T10:12:52;6.10;;;3.25;;
12776;SDS011;6452;41.572;23.732;2022-10-29T10:20:46;4.05;;;2.75;;
12776;SDS011;6452;41.572;23.732;2022-10-29T10:25:53;15.30;;;4.25;;
12776;SDS011;6452;41.572;23.732;2022-10-29T10:28:21;4.95;;;3.05;;
12776;SDS011;6452;41.572;23.732;2022-10-29T10:31:06;7.75;;;3.35;;
12776;SDS011;6452;41.572;23.732;2022-10-29T10:33:33;5.00;;;2.70;;
12776;SDS011;6452;41.572;23.732;2022-10-29T10:36:03;6.65;;;2.63;;
12776;SDS011;6452;41.572;23.732;2022-10-29T10:38:53;3.20;;;2.70;;
12776;SDS011;6452;41.572;23.732;2022-10-29T10:41:37;7.22;;;3.17;;
12776;SDS011;6452;41.572;23.732;2022-10-29T10:44:09;3.75;;;2.55;;
12776;SDS011;6452;41.572;23.732;2022-10-29T10:46:38;5.90;;;2.30;;
12776;SDS011;6452;41.572;23.732;2022-10-29T10:51:36;10.90;;;2.60;;
12776;SDS011;6452;41.572;23.732;2022-10-29T10:59:55;1.85;;;1.77;;
12776;SDS011;6452;41.572;23.732;2022-10-29T11:05:21;2.78;;;2.50;;
12776;SDS011;6452;41.572;23.732;2022-10-29T11:08:43;3.30;;;2.60;;
12776;SDS011;6452;41.572;23.732;2022-10-29T11:11:13;7.72;;;2.60;;
12776;SDS011;6452;41.572;23.732;2022-10-29T11:14:09;2.45;;;2.30;;
12776;SDS011;6452;41.572;23.732;2022-10-29T11:16:46;2.28;;;2.05;;
12776;SDS011;6452;41.572;23.732;2022-10-29T11:30:13;5.20;;;2.30;;
12776;SDS011;6452;41.572;23.732;2022-10-29T11:35:18;2.78;;;1.95;;
12776;SDS011;6452;41.572;23.732;2022-10-29T11:38:00;3.22;;;2.10;;
12776;SDS011;6452;41.572;23.732;2022-10-29T11:43:32;2.10;;;2.00;;
12776;SDS011;6452;41.572;23.732;2022-10-29T11:57:02;2.75;;;2.53;;
12776;SDS011;6452;41.572;23.732;2022-10-29T11:59:44;5.05;;;2.65;;
12776;SDS011;6452;41.572;23.732;2022-10-29T12:05:21;75.20;;;7.68;;
12776;SDS011;6452;41.572;23.732;2022-10-29T12:19:04;2.75;;;2.47;;
12776;SDS011;6452;41.572;23.732;2022-10-29T12:26:48;18.20;;;3.38;;
12776;SDS011;6452;41.572;23.732;2022-10-29T12:29:38;4.30;;;2.45;;
12776;SDS011;6452;41.572;23.732;2022-10-29T12:32:36;11.75;;;3.28;;
12776;SDS011;6452;41.572;23.732;2022-10-29T12:41:07;21.17;;;3.55;;
12776;SDS011;6452;41.572;23.732;2022-10-29T12:43:40;9.43;;;2.88;;
12776;SDS011;6452;41.572;23.732;2022-10-29T12:46:13;427.33;;;47.20;;
12776;SDS011;6452;41.572;23.732;2022-10-29T12:51:49;7.10;;;2.92;;
12776;SDS011;6452;41.572;23.732;2022-10-29T12:54:30;6.15;;;2.60;;
12776;SDS011;6452;41.572;23.732;2022-10-29T12:57:30;2.83;;;2.10;;
12776;SDS011;6452;41.572;23.732;2022-10-29T13:02:48;4.35;;;2.60;;
12776;SDS011;6452;41.572;23.732;2022-10-29T13:15:42;3.40;;;1.70;;
12776;SDS011;6452;41.572;23.732;2022-10-29T13:18:38;3.03;;;1.83;;
12776;SDS011;6452;41.572;23.732;2022-10-29T13:24:25;2.03;;;1.88;;
12776;SDS011;6452;41.572;23.732;2022-10-29T13:29:42;2.50;;;1.58;;
12776;SDS011;6452;41.572;23.732;2022-10-29T13:32:12;2.58;;;1.73;;
12776;SDS011;6452;41.572;23.732;2022-10-29T13:34:55;3.60;;;2.28;;
12776;SDS011;6452;41.572;23.732;2022-10-29T13:42:59;3.35;;;1.83;;
12776;SDS011;6452;41.572;23.732;2022-10-29T13:45:35;2.17;;;1.67;;
12776;SDS011;6452;41.572;23.732;2022-10-29T13:48:05;5.63;;;3.35;;
12776;SDS011;6452;41.572;23.732;2022-10-29T13:50:41;7.53;;;4.35;;
12776;SDS011;6452;41.572;23.732;2022-10-29T13:53:09;4.72;;;4.22;;
12776;SDS011;6452;41.572;23.732;2022-10-29T13:55:39;4.45;;;4.05;;
12776;SDS011;6452;41.572;23.732;2022-10-29T13:58:16;9.40;;;3.20;;
12776;SDS011;6452;41.572;23.732;2022-10-29T14:01:15;4.07;;;3.17;;
12776;SDS011;6452;41.572;23.732;2022-10-29T14:03:53;5.68;;;3.28;;
12776;SDS011;6452;41.572;23.732;2022-10-29T14:06:44;3.65;;;3.35;;
12776;SDS011;6452;41.572;23.732;2022-10-29T14:09:18;3.10;;;2.63;;
12776;SDS011;6452;41.572;23.732;2022-10-29T14:12:03;4.05;;;3.42;;
12776;SDS011;6452;41.572;23.732;2022-10-29T14:17:12;3.95;;;3.65;;
12776;SDS011;6452;41.572;23.732;2022-10-29T14:19:49;5.72;;;4.00;;
12776;SDS011;6452;41.572;23.732;2022-10-29T14:24:42;5.13;;;4.60;;
12776;SDS011;6452;41.572;23.732;2022-10-29T14:27:12;6.20;;;5.45;;
12776;SDS011;6452;41.572;23.732;2022-10-29T14:29:42;11.43;;;5.77;;
12776;SDS011;6452;41.572;23.732;2022-10-29T14:32:10;9.20;;;5.70;;
12776;SDS011;6452;41.572;23.732;2022-10-29T14:34:44;6.35;;;4.85;;
12776;SDS011;6452;41.572;23.732;2022-10-29T14:37:31;7.60;;;5.50;;
12776;SDS011;6452;41.572;23.732;2022-10-29T14:45:17;9.93;;;6.47;;
12776;SDS011;6452;41.572;23.732;2022-10-29T14:47:52;8.02;;;6.50;;
12776;SDS011;6452;41.572;23.732;2022-10-29T14:50:43;9.57;;;5.97;;
12776;SDS011;6452;41.572;23.732;2022-10-29T14:53:45;6.78;;;5.18;;
12776;SDS011;6452;41.572;23.732;2022-10-29T14:56:07;7.50;;;4.78;;
12776;SDS011;6452;41.572;23.732;2022-10-29T14:58:36;6.15;;;4.43;;
12776;SDS011;6452;41.572;23.732;2022-10-29T15:01:04;6.82;;;4.25;;
12776;SDS011;6452;41.572;23.732;2022-10-29T15:03:34;5.80;;;4.28;;
12776;SDS011;6452;41.572;23.732;2022-10-29T15:09:01;7.65;;;5.57;;
12776;SDS011;6452;41.572;23.732;2022-10-29T15:11:39;7.13;;;5.18;;
12776;SDS011;6452;41.572;23.732;2022-10-29T15:14:36;6.25;;;5.05;;
12776;SDS011;6452;41.572;23.732;2022-10-29T15:17:12;8.55;;;6.03;;
12776;SDS011;6452;41.572;23.732;2022-10-29T15:20:04;7.20;;;6.32;;
12776;SDS011;6452;41.572;23.732;2022-10-29T15:22:43;13.20;;;6.85;;
12776;SDS011;6452;41.572;23.732;2022-10-29T15:25:17;10.23;;;8.13;;
12776;SDS011;6452;41.572;23.732;2022-10-29T15:28:00;13.52;;;8.52;;
12776;SDS011;6452;41.572;23.732;2022-10-29T15:30:34;11.30;;;7.32;;
12776;SDS011;6452;41.572;23.732;2022-10-29T15:33:05;9.57;;;7.32;;
12776;SDS011;6452;41.572;23.732;2022-10-29T15:35:44;11.52;;;8.88;;
12776;SDS011;6452;41.572;23.732;2022-10-29T15:43:37;13.73;;;7.53;;
12776;SDS011;6452;41.572;23.732;2022-10-29T15:46:29;9.82;;;7.00;;
12776;SDS011;6452;41.572;23.732;2022-10-29T15:48:55;13.63;;;8.90;;
12776;SDS011;6452;41.572;23.732;2022-10-29T15:51:28;39.95;;;23.95;;
12776;SDS011;6452;41.572;23.732;2022-10-29T15:54:10;40.95;;;28.35;;
12776;SDS011;6452;41.572;23.732;2022-10-29T15:56:38;37.47;;;25.20;;
12776;SDS011;6452;41.572;23.732;2022-10-29T15:59:05;35.67;;;24.42;;
12776;SDS011;6452;41.572;23.732;2022-10-29T16:01:37;31.42;;;22.35;;
12776;SDS011;6452;41.572;23.732;2022-10-29T16:04:03;40.05;;;29.25;;
12776;SDS011;6452;41.572;23.732;2022-10-29T16:06:30;38.25;;;28.48;;
12776;SDS011;6452;41.572;23.732;2022-10-29T16:08:57;34.75;;;25.13;;
12776;SDS011;6452;41.572;23.732;2022-10-29T16:11:25;36.63;;;26.60;;
12776;SDS011;6452;41.572;23.732;2022-10-29T16:13:52;30.10;;;23.48;;
12776;SDS011;6452;41.572;23.732;2022-10-29T16:16:20;29.25;;;20.40;;
12776;SDS011;6452;41.572;23.732;2022-10-29T16:18:48;25.05;;;17.70;;
12776;SDS011;6452;41.572;23.732;2022-10-29T16:21:19;24.55;;;17.95;;
12776;SDS011;6452;41.572;23.732;2022-10-29T16:23:48;24.92;;;15.65;;
12776;SDS011;6452;41.572;23.732;2022-10-29T16:26:15;22.02;;;15.60;;
12776;SDS011;6452;41.572;23.732;2022-10-29T16:28:43;22.52;;;13.82;;
12776;SDS011;6452;41.572;23.732;2022-10-29T16:31:16;19.50;;;13.75;;
12776;SDS011;6452;41.572;23.732;2022-10-29T16:33:47;17.42;;;11.65;;
12776;SDS011;6452;41.572;23.732;2022-10-29T16:36:15;13.07;;;10.10;;
12776;SDS011;6452;41.572;23.732;2022-10-29T16:38:42;10.77;;;9.13;;
12776;SDS011;6452;41.572;23.732;2022-10-29T16:41:10;21.17;;;14.60;;
12776;SDS011;6452;41.572;23.732;2022-10-29T16:43:37;21.35;;;15.35;;
12776;SDS011;6452;41.572;23.732;2022-10-29T16:46:03;17.98;;;14.05;;
12776;SDS011;6452;41.572;23.732;2022-10-29T16:48:34;13.18;;;10.50;;
12776;SDS011;6452;41.572;23.732;2022-10-29T16:51:01;10.23;;;9.20;;
12776;SDS011;6452;41.572;23.732;2022-10-29T16:53:28;12.00;;;9.18;;
12776;SDS011;6452;41.572;23.732;2022-10-29T16:55:54;13.55;;;9.20;;
12776;SDS011;6452;41.572;23.732;2022-10-29T16:58:24;10.15;;;8.40;;
12776;SDS011;6452;41.572;23.732;2022-10-29T17:01:00;13.77;;;8.50;;
12776;SDS011;6452;41.572;23.732;2022-10-29T17:03:27;11.20;;;8.20;;
12776;SDS011;6452;41.572;23.732;2022-10-29T17:05:52;10.82;;;8.38;;
12776;SDS011;6452;41.572;23.732;2022-10-29T17:08:19;10.55;;;8.00;;
12776;SDS011;6452;41.572;23.732;2022-10-29T17:10:46;9.23;;;6.55;;
12776;SDS011;6452;41.572;23.732;2022-10-29T17:13:12;7.22;;;6.50;;
12776;SDS011;6452;41.572;23.732;2022-10-29T17:15:43;6.75;;;5.82;;
12776;SDS011;6452;41.572;23.732;2022-10-29T17:18:09;9.45;;;6.68;;
12776;SDS011;6452;41.572;23.732;2022-10-29T17:20:36;11.65;;;8.20;;
12776;SDS011;6452;41.572;23.732;2022-10-29T17:23:02;11.85;;;8.63;;
12776;SDS011;6452;41.572;23.732;2022-10-29T17:25:29;14.25;;;8.77;;
12776;SDS011;6452;41.572;23.732;2022-10-29T17:27:55;10.85;;;8.00;;
12776;SDS011;6452;41.572;23.732;2022-10-29T17:30:22;15.32;;;8.68;;
12776;SDS011;6452;41.572;23.732;2022-10-29T17:32:49;20.42;;;12.68;;
12776;SDS011;6452;41.572;23.732;2022-10-29T17:35:16;27.48;;;20.77;;
12776;SDS011;6452;41.572;23.732;2022-10-29T17:37:42;24.73;;;19.00;;
12776;SDS011;6452;41.572;23.732;2022-10-29T17:40:09;24.90;;;17.88;;
12776;SDS011;6452;41.572;23.732;2022-10-29T17:42:37;18.05;;;13.52;;
12776;SDS011;6452;41.572;23.732;2022-10-29T17:45:04;13.15;;;10.70;;
12776;SDS011;6452;41.572;23.732;2022-10-29T17:47:32;12.20;;;9.43;;
12776;SDS011;6452;41.572;23.732;2022-10-29T17:49:58;10.95;;;8.82;;
12776;SDS011;6452;41.572;23.732;2022-10-29T17:52:25;11.00;;;6.97;;
12776;SDS011;6452;41.572;23.732;2022-10-29T17:54:52;9.65;;;5.90;;
12776;SDS011;6452;41.572;23.732;2022-10-29T17:57:19;9.48;;;6.68;;
12776;SDS011;6452;41.572;23.732;2022-10-29T17:59:45;5.82;;;4.70;;
12776;SDS011;6452;41.572;23.732;2022-10-29T18:02:12;11.32;;;6.30;;
12776;SDS011;6452;41.572;23.732;2022-10-29T18:04:39;8.07;;;6.00;;
12776;SDS011;6452;41.572;23.732;2022-10-29T18:07:06;7.45;;;5.43;;
12776;SDS011;6452;41.572;23.732;2022-10-29T18:09:32;10.23;;;6.63;;
12776;SDS011;6452;41.572;23.732;2022-10-29T18:11:59;12.15;;;8.25;;
12776;SDS011;6452;41.572;23.732;2022-10-29T18:14:29;18.58;;;14.07;;
12776;SDS011;6452;41.572;23.732;2022-10-29T18:16:59;16.75;;;13.00;;
12776;SDS011;6452;41.572;23.732;2022-10-29T18:19:27;16.08;;;12.50;;
12776;SDS011;6452;41.572;23.732;2022-10-29T18:21:53;18.23;;;13.13;;
12776;SDS011;6452;41.572;23.732;2022-10-29T18:24:19;13.65;;;10.88;;
12776;SDS011;6452;41.572;23.732;2022-10-29T18:26:48;12.77;;;8.38;;
12776;SDS011;6452;41.572;23.732;2022-10-29T18:29:15;8.52;;;7.28;;
12776;SDS011;6452;41.572;23.732;2022-10-29T18:31:41;8.90;;;6.88;;
12776;SDS011;6452;41.572;23.732;2022-10-29T18:34:10;8.65;;;6.63;;
12776;SDS011;6452;41.572;23.732;2022-10-29T18:36:37;9.52;;;7.00;;
12776;SDS011;6452;41.572;23.732;2022-10-29T18:39:05;6.82;;;6.13;;
12776;SDS011;6452;41.572;23.732;2022-10-29T18:41:31;7.00;;;6.35;;
12776;SDS011;6452;41.572;23.732;2022-10-29T18:43:59;7.57;;;6.50;;
12776;SDS011;6452;41.572;23.732;2022-10-29T18:46:26;8.85;;;6.03;;
12776;SDS011;6452;41.572;23.732;2022-10-29T18:48:52;5.90;;;4.97;;
12776;SDS011;6452;41.572;23.732;2022-10-29T18:51:23;6.60;;;5.00;;
12776;SDS011;6452;41.572;23.732;2022-10-29T18:53:51;5.57;;;4.85;;
12776;SDS011;6452;41.572;23.732;2022-10-29T18:56:19;7.28;;;6.28;;
12776;SDS011;6452;41.572;23.732;2022-10-29T18:58:46;7.78;;;6.00;;
12776;SDS011;6452;41.572;23.732;2022-10-29T19:01:15;16.83;;;12.45;;
12776;SDS011;6452;41.572;23.732;2022-10-29T19:03:51;16.00;;;12.20;;
